Saint Nicholas, Pennsylvania
Current Conditions -  °F | °C
As of 9:35 AM on Thursday 23 Oct 2014 (Local Time) from KHZL Reporting Station
Light Rain Light Rain  
Wind Chill: 38°   Ceiling: 700
Heat Index: 43°   Visibility: 3mi
Dew Point: 43°   Wind: 8mph
Humidity: 100%   Direction: 320°NW
Pressure: 29.89"   Gusts: NA
Location:  40.8128°N, 76.1382°W
Report Text: KHZL 231335Z AUTO 32007KT 280V350 3SM -RA OVC007 06/06 A2989 RMK AO2
Loading
Personal Weather Stations






























Interactive Weather Map
Tropical Storm Tracking
New forecast layout! Learn more

10-Day Weather Forecast

Advertisements
Track Severe Weather on mobile